Terminal Aerodrome Forecast
Issued by NWS

Home | Current Version | Previous Version | Text Only | Print | Product List | Glossary On
Versions: 1 2 3 4 5 6 7 8 9 10 11 12 13 14 15 16 17 18 19
000
FTUS44 KLZK 200900 AAA
TAFLIT
TAF AMD
KLIT 200921Z 2009/2106 07003KT P6SM SCT015 BKN040
      TEMPO 2011/2015 BKN015
     FM201700 12003KT P6SM OVC015
     FM202100 13004KT P6SM BKN020
     FM210300 15005KT P6SM SCT030=

USA.gov is the U.S. government's official web portal to all federal, state and local government web resources and services.